sensor_id;sensor_type;location;lat;lon;timestamp;temperature;humidity
22984;DHT22;11658;48.908;9.140;2022-08-25T03:02:37;18.40;99.90
22984;DHT22;11658;48.908;9.140;2022-08-25T03:05:06;18.30;99.90
22984;DHT22;11658;48.908;9.140;2022-08-25T03:07:33;18.30;99.90
22984;DHT22;11658;48.908;9.140;2022-08-25T03:09:58;18.30;99.90
22984;DHT22;11658;48.908;9.140;2022-08-25T03:12:24;18.30;99.90
22984;DHT22;11658;48.908;9.140;2022-08-25T03:14:50;18.20;99.90
22984;DHT22;11658;48.908;9.140;2022-08-25T03:17:15;18.20;99.90
22984;DHT22;11658;48.908;9.140;2022-08-25T03:19:41;18.20;99.90
22984;DHT22;11658;48.908;9.140;2022-08-25T03:22:06;18.20;99.90
22984;DHT22;11658;48.908;9.140;2022-08-25T03:24:32;18.20;99.90
22984;DHT22;11658;48.908;9.140;2022-08-25T03:26:57;18.00;99.90
22984;DHT22;11658;48.908;9.140;2022-08-25T03:29:29;18.00;99.90
22984;DHT22;11658;48.908;9.140;2022-08-25T03:31:55;18.00;99.90
22984;DHT22;11658;48.908;9.140;2022-08-25T03:34:22;18.00;99.90
22984;DHT22;11658;48.908;9.140;2022-08-25T03:36:50;18.10;99.90
22984;DHT22;11658;48.908;9.140;2022-08-25T03:39:18;18.10;99.90
22984;DHT22;11658;48.908;9.140;2022-08-25T03:41:43;18.10;99.90
22984;DHT22;11658;48.908;9.140;2022-08-25T03:44:10;18.10;99.90
22984;DHT22;11658;48.908;9.140;2022-08-25T03:46:41;18.10;99.90
22984;DHT22;11658;48.908;9.140;2022-08-25T03:49:09;18.20;99.90
22984;DHT22;11658;48.908;9.140;2022-08-25T03:51:46;18.10;99.90
22984;DHT22;11658;48.908;9.140;2022-08-25T03:54:17;18.00;99.90
22984;DHT22;11658;48.908;9.140;2022-08-25T03:56:44;17.80;99.90
22984;DHT22;11658;48.908;9.140;2022-08-25T03:59:10;17.70;99.90
22984;DHT22;11658;48.908;9.140;2022-08-25T04:01:37;17.50;99.90
22984;DHT22;11658;48.908;9.140;2022-08-25T04:04:03;17.60;99.90
22984;DHT22;11658;48.908;9.140;2022-08-25T04:06:29;17.60;99.90
22984;DHT22;11658;48.908;9.140;2022-08-25T04:08:55;17.60;99.90
22984;DHT22;11658;48.908;9.140;2022-08-25T04:11:23;17.70;99.90
22984;DHT22;11658;48.908;9.140;2022-08-25T04:13:50;17.70;99.90
22984;DHT22;11658;48.908;9.140;2022-08-25T04:16:22;17.70;99.90
22984;DHT22;11658;48.908;9.140;2022-08-25T04:18:49;17.60;99.90
22984;DHT22;11658;48.908;9.140;2022-08-25T04:21:16;17.60;99.90
22984;DHT22;11658;48.908;9.140;2022-08-25T04:23:44;17.60;99.90
22984;DHT22;11658;48.908;9.140;2022-08-25T04:26:15;17.70;99.90
22984;DHT22;11658;48.908;9.140;2022-08-25T04:28:42;17.60;99.90
22984;DHT22;11658;48.908;9.140;2022-08-25T04:31:09;17.60;99.90
22984;DHT22;11658;48.908;9.140;2022-08-25T04:33:36;17.70;99.90
22984;DHT22;11658;48.908;9.140;2022-08-25T04:36:03;17.70;99.90
22984;DHT22;11658;48.908;9.140;2022-08-25T04:38:29;17.60;99.90
22984;DHT22;11658;48.908;9.140;2022-08-25T04:40:59;17.60;99.90
22984;DHT22;11658;48.908;9.140;2022-08-25T04:43:25;17.60;99.90
22984;DHT22;11658;48.908;9.140;2022-08-25T04:45:51;17.60;99.90
22984;DHT22;11658;48.908;9.140;2022-08-25T04:48:17;17.60;99.90
22984;DHT22;11658;48.908;9.140;2022-08-25T04:50:43;17.60;99.90
22984;DHT22;11658;48.908;9.140;2022-08-25T04:53:09;17.70;99.90
22984;DHT22;11658;48.908;9.140;2022-08-25T04:55:46;17.80;99.90
22984;DHT22;11658;48.908;9.140;2022-08-25T04:58:12;17.80;99.90
22984;DHT22;11658;48.908;9.140;2022-08-25T05:00:39;17.80;99.90
22984;DHT22;11658;48.908;9.140;2022-08-25T05:03:05;17.90;99.90
22984;DHT22;11658;48.908;9.140;2022-08-25T05:05:35;17.90;99.90
22984;DHT22;11658;48.908;9.140;2022-08-25T05:08:02;18.00;99.90
22984;DHT22;11658;48.908;9.140;2022-08-25T05:10:27;18.00;99.90
22984;DHT22;11658;48.908;9.140;2022-08-25T05:12:53;18.00;99.90
22984;DHT22;11658;48.908;9.140;2022-08-25T05:15:18;17.90;99.90
22984;DHT22;11658;48.908;9.140;2022-08-25T05:18:03;17.80;99.90
22984;DHT22;11658;48.908;9.140;2022-08-25T05:20:29;17.90;99.90
22984;DHT22;11658;48.908;9.140;2022-08-25T05:22:56;17.90;99.90
22984;DHT22;11658;48.908;9.140;2022-08-25T05:25:22;17.90;99.90
22984;DHT22;11658;48.908;9.140;2022-08-25T05:27:48;17.80;99.90
22984;DHT22;11658;48.908;9.140;2022-08-25T05:30:14;18.00;99.90
22984;DHT22;11658;48.908;9.140;2022-08-25T05:32:40;18.10;99.90
22984;DHT22;11658;48.908;9.140;2022-08-25T05:35:06;18.10;99.90
22984;DHT22;11658;48.908;9.140;2022-08-25T05:37:32;18.10;99.90
22984;DHT22;11658;48.908;9.140;2022-08-25T05:39:58;18.30;99.90
22984;DHT22;11658;48.908;9.140;2022-08-25T05:42:25;18.40;99.90
22984;DHT22;11658;48.908;9.140;2022-08-25T05:44:52;18.50;99.90
22984;DHT22;11658;48.908;9.140;2022-08-25T05:47:18;18.60;99.90
22984;DHT22;11658;48.908;9.140;2022-08-25T05:49:43;18.70;99.90
22984;DHT22;11658;48.908;9.140;2022-08-25T05:52:09;18.80;99.90
22984;DHT22;11658;48.908;9.140;2022-08-25T05:54:35;19.10;99.90
22984;DHT22;11658;48.908;9.140;2022-08-25T05:57:00;19.20;99.90
22984;DHT22;11658;48.908;9.140;2022-08-25T05:59:26;19.40;99.90
22984;DHT22;11658;48.908;9.140;2022-08-25T06:01:52;19.40;99.90
22984;DHT22;11658;48.908;9.140;2022-08-25T06:04:36;19.50;99.90
22984;DHT22;11658;48.908;9.140;2022-08-25T06:07:02;19.60;99.90
22984;DHT22;11658;48.908;9.140;2022-08-25T06:09:27;19.60;99.90
22984;DHT22;11658;48.908;9.140;2022-08-25T06:11:54;19.70;99.90
22984;DHT22;11658;48.908;9.140;2022-08-25T06:14:19;19.80;99.90
22984;DHT22;11658;48.908;9.140;2022-08-25T06:16:45;19.90;99.90
22984;DHT22;11658;48.908;9.140;2022-08-25T06:19:13;20.00;99.90
22984;DHT22;11658;48.908;9.140;2022-08-25T06:21:39;20.10;99.90
22984;DHT22;11658;48.908;9.140;2022-08-25T06:24:05;20.20;99.90
22984;DHT22;11658;48.908;9.140;2022-08-25T06:26:31;20.40;99.90
22984;DHT22;11658;48.908;9.140;2022-08-25T06:28:57;20.60;99.90
22984;DHT22;11658;48.908;9.140;2022-08-25T06:31:22;20.80;99.90
22984;DHT22;11658;48.908;9.140;2022-08-25T06:33:49;21.00;99.90
22984;DHT22;11658;48.908;9.140;2022-08-25T06:36:15;21.10;99.90
22984;DHT22;11658;48.908;9.140;2022-08-25T06:38:40;21.20;99.90
22984;DHT22;11658;48.908;9.140;2022-08-25T06:41:07;21.20;99.90
22984;DHT22;11658;48.908;9.140;2022-08-25T06:43:35;21.30;99.90
22984;DHT22;11658;48.908;9.140;2022-08-25T06:48:33;21.30;99.90
22984;DHT22;11658;48.908;9.140;2022-08-25T06:50:59;21.40;99.90
22984;DHT22;11658;48.908;9.140;2022-08-25T06:53:24;21.50;99.90
22984;DHT22;11658;48.908;9.140;2022-08-25T06:55:57;21.70;99.90
22984;DHT22;11658;48.908;9.140;2022-08-25T06:58:23;21.60;99.90
22984;DHT22;11658;48.908;9.140;2022-08-25T07:00:49;21.70;99.90
22984;DHT22;11658;48.908;9.140;2022-08-25T07:03:14;21.80;99.90
22984;DHT22;11658;48.908;9.140;2022-08-25T07:05:40;22.00;99.90
22984;DHT22;11658;48.908;9.140;2022-08-25T07:08:06;22.00;99.90
22984;DHT22;11658;48.908;9.140;2022-08-25T07:10:32;22.10;99.90
22984;DHT22;11658;48.908;9.140;2022-08-25T07:12:57;22.30;99.90
22984;DHT22;11658;48.908;9.140;2022-08-25T07:15:23;22.40;99.90
22984;DHT22;11658;48.908;9.140;2022-08-25T07:17:49;22.40;99.90
22984;DHT22;11658;48.908;9.140;2022-08-25T07:20:16;22.40;99.90
22984;DHT22;11658;48.908;9.140;2022-08-25T07:22:42;22.60;99.90
22984;DHT22;11658;48.908;9.140;2022-08-25T07:25:08;22.80;99.90
22984;DHT22;11658;48.908;9.140;2022-08-25T07:27:36;22.90;99.90
22984;DHT22;11658;48.908;9.140;2022-08-25T07:30:03;22.80;99.90
22984;DHT22;11658;48.908;9.140;2022-08-25T07:32:30;23.00;99.90
22984;DHT22;11658;48.908;9.140;2022-08-25T07:34:55;23.00;99.90
22984;DHT22;11658;48.908;9.140;2022-08-25T07:37:43;23.00;99.90
22984;DHT22;11658;48.908;9.140;2022-08-25T07:40:11;23.00;99.90
22984;DHT22;11658;48.908;9.140;2022-08-25T07:42:38;23.00;99.90
22984;DHT22;11658;48.908;9.140;2022-08-25T07:45:05;23.10;99.90
22984;DHT22;11658;48.908;9.140;2022-08-25T07:47:31;23.20;99.90
22984;DHT22;11658;48.908;9.140;2022-08-25T07:49:57;23.40;99.90
22984;DHT22;11658;48.908;9.140;2022-08-25T07:52:23;23.50;99.90
22984;DHT22;11658;48.908;9.140;2022-08-25T07:54:49;23.60;99.90
22984;DHT22;11658;48.908;9.140;2022-08-25T07:57:18;23.70;99.90
22984;DHT22;11658;48.908;9.140;2022-08-25T07:59:43;23.70;99.90
22984;DHT22;11658;48.908;9.140;2022-08-25T08:02:11;23.70;99.90
22984;DHT22;11658;48.908;9.140;2022-08-25T08:04:37;23.80;99.90
22984;DHT22;11658;48.908;9.140;2022-08-25T08:07:03;23.90;99.90
22984;DHT22;11658;48.908;9.140;2022-08-25T08:09:29;24.00;99.90
22984;DHT22;11658;48.908;9.140;2022-08-25T08:11:55;24.00;99.90
22984;DHT22;11658;48.908;9.140;2022-08-25T08:14:22;24.00;99.90
22984;DHT22;11658;48.908;9.140;2022-08-25T08:16:48;24.10;99.90
22984;DHT22;11658;48.908;9.140;2022-08-25T08:19:14;24.10;99.90
22984;DHT22;11658;48.908;9.140;2022-08-25T08:21:41;24.10;99.90
22984;DHT22;11658;48.908;9.140;2022-08-25T08:24:07;24.30;99.90
22984;DHT22;11658;48.908;9.140;2022-08-25T08:26:32;24.40;99.90
22984;DHT22;11658;48.908;9.140;2022-08-25T08:28:59;24.60;99.90
22984;DHT22;11658;48.908;9.140;2022-08-25T08:31:26;24.60;99.90
22984;DHT22;11658;48.908;9.140;2022-08-25T08:33:54;24.60;99.90
22984;DHT22;11658;48.908;9.140;2022-08-25T08:36:21;24.50;99.90
22984;DHT22;11658;48.908;9.140;2022-08-25T08:38:47;24.60;99.90
22984;DHT22;11658;48.908;9.140;2022-08-25T08:49:44;24.90;99.90
22984;DHT22;11658;48.908;9.140;2022-08-25T08:52:15;24.90;99.90
22984;DHT22;11658;48.908;9.140;2022-08-25T08:54:44;25.00;99.90
22984;DHT22;11658;48.908;9.140;2022-08-25T08:57:14;25.00;99.90
22984;DHT22;11658;48.908;9.140;2022-08-25T08:59:58;25.10;99.90
22984;DHT22;11658;48.908;9.140;2022-08-25T09:02:30;25.10;99.90
22984;DHT22;11658;48.908;9.140;2022-08-25T09:05:01;24.90;99.90
22984;DHT22;11658;48.908;9.140;2022-08-25T09:07:36;24.90;99.90
22984;DHT22;11658;48.908;9.140;2022-08-25T09:10:04;25.00;99.90
22984;DHT22;11658;48.908;9.140;2022-08-25T09:20:46;25.50;99.90
22984;DHT22;11658;48.908;9.140;2022-08-25T09:28:37;25.80;99.90
22984;DHT22;11658;48.908;9.140;2022-08-25T09:31:30;25.90;99.90
22984;DHT22;11658;48.908;9.140;2022-08-25T09:33:59;26.00;99.90
22984;DHT22;11658;48.908;9.140;2022-08-25T09:36:25;26.10;99.90
22984;DHT22;11658;48.908;9.140;2022-08-25T09:38:51;26.10;99.90
22984;DHT22;11658;48.908;9.140;2022-08-25T09:41:33;26.10;99.90
22984;DHT22;11658;48.908;9.140;2022-08-25T09:43:59;26.20;99.90
22984;DHT22;11658;48.908;9.140;2022-08-25T09:46:27;26.30;99.90
22984;DHT22;11658;48.908;9.140;2022-08-25T09:49:09;26.40;99.90
22984;DHT22;11658;48.908;9.140;2022-08-25T09:51:37;26.50;99.90
22984;DHT22;11658;48.908;9.140;2022-08-25T09:56:54;26.40;99.90
22984;DHT22;11658;48.908;9.140;2022-08-25T09:59:27;26.40;99.90
22984;DHT22;11658;48.908;9.140;2022-08-25T10:01:58;26.40;99.90
22984;DHT22;11658;48.908;9.140;2022-08-25T10:04:34;26.60;99.90
22984;DHT22;11658;48.908;9.140;2022-08-25T10:07:32;26.70;99.90
22984;DHT22;11658;48.908;9.140;2022-08-25T10:10:02;26.70;99.90
22984;DHT22;11658;48.908;9.140;2022-08-25T10:12:42;27.00;99.90
22984;DHT22;11658;48.908;9.140;2022-08-25T10:17:43;27.10;99.90
22984;DHT22;11658;48.908;9.140;2022-08-25T10:22:35;27.40;99.90
22984;DHT22;11658;48.908;9.140;2022-08-25T10:25:03;27.60;99.90
22984;DHT22;11658;48.908;9.140;2022-08-25T10:36:01;28.30;99.90
22984;DHT22;11658;48.908;9.140;2022-08-25T10:38:44;28.30;99.90
22984;DHT22;11658;48.908;9.140;2022-08-25T10:41:25;28.40;99.90
22984;DHT22;11658;48.908;9.140;2022-08-25T10:50:08;27.80;99.90
22984;DHT22;11658;48.908;9.140;2022-08-25T10:55:31;27.90;99.90
22984;DHT22;11658;48.908;9.140;2022-08-25T11:01:09;27.90;99.90
22984;DHT22;11658;48.908;9.140;2022-08-25T11:03:51;28.00;99.90
22984;DHT22;11658;48.908;9.140;2022-08-25T11:06:24;28.30;99.90
22984;DHT22;11658;48.908;9.140;2022-08-25T11:08:58;28.70;99.90
22984;DHT22;11658;48.908;9.140;2022-08-25T11:11:29;28.90;99.90
22984;DHT22;11658;48.908;9.140;2022-08-25T11:16:47;29.30;99.90
22984;DHT22;11658;48.908;9.140;2022-08-25T11:19:23;29.30;99.90
22984;DHT22;11658;48.908;9.140;2022-08-25T11:24:59;29.20;99.90
22984;DHT22;11658;48.908;9.140;2022-08-25T11:27:34;29.20;99.90
22984;DHT22;11658;48.908;9.140;2022-08-25T11:30:12;29.00;99.90
22984;DHT22;11658;48.908;9.140;2022-08-25T11:32:38;28.70;99.90
22984;DHT22;11658;48.908;9.140;2022-08-25T11:35:09;28.80;99.90
22984;DHT22;11658;48.908;9.140;2022-08-25T11:37:44;29.00;99.90
22984;DHT22;11658;48.908;9.140;2022-08-25T11:42:51;29.50;99.90
22984;DHT22;11658;48.908;9.140;2022-08-25T11:49:08;29.90;99.90
22984;DHT22;11658;48.908;9.140;2022-08-25T11:51:32;30.00;99.90
22984;DHT22;11658;48.908;9.140;2022-08-25T11:57:00;30.20;99.90
22984;DHT22;11658;48.908;9.140;2022-08-25T12:02:48;30.30;99.90
22984;DHT22;11658;48.908;9.140;2022-08-25T12:15:21;30.20;99.90
22984;DHT22;11658;48.908;9.140;2022-08-25T12:18:36;30.10;99.90
22984;DHT22;11658;48.908;9.140;2022-08-25T12:23:44;30.00;99.90
22984;DHT22;11658;48.908;9.140;2022-08-25T12:26:40;29.70;99.90
22984;DHT22;11658;48.908;9.140;2022-08-25T12:29:14;29.90;99.90
22984;DHT22;11658;48.908;9.140;2022-08-25T12:35:02;30.00;99.90
22984;DHT22;11658;48.908;9.140;2022-08-25T12:37:10;30.10;99.90
22984;DHT22;11658;48.908;9.140;2022-08-25T12:42:36;30.30;99.90
22984;DHT22;11658;48.908;9.140;2022-08-25T12:45:44;30.40;99.90
22984;DHT22;11658;48.908;9.140;2022-08-25T12:51:02;30.50;99.90
22984;DHT22;11658;48.908;9.140;2022-08-25T12:53:43;30.50;99.90
22984;DHT22;11658;48.908;9.140;2022-08-25T13:01:21;29.70;99.90
22984;DHT22;11658;48.908;9.140;2022-08-25T13:12:25;30.00;99.90
22984;DHT22;11658;48.908;9.140;2022-08-25T13:14:56;29.60;99.90
22984;DHT22;11658;48.908;9.140;2022-08-25T13:17:27;29.40;99.90
22984;DHT22;11658;48.908;9.140;2022-08-25T13:20:30;29.40;99.90
22984;DHT22;11658;48.908;9.140;2022-08-25T13:22:59;29.30;99.90
22984;DHT22;11658;48.908;9.140;2022-08-25T13:25:29;29.30;99.90
22984;DHT22;11658;48.908;9.140;2022-08-25T13:28:00;29.50;99.90
22984;DHT22;11658;48.908;9.140;2022-08-25T13:30:30;29.60;99.90
22984;DHT22;11658;48.908;9.140;2022-08-25T13:32:57;29.50;99.90
22984;DHT22;11658;48.908;9.140;2022-08-25T13:35:27;29.50;99.90
22984;DHT22;11658;48.908;9.140;2022-08-25T13:37:53;29.50;99.90
22984;DHT22;11658;48.908;9.140;2022-08-25T13:40:23;29.70;99.90
22984;DHT22;11658;48.908;9.140;2022-08-25T13:42:52;29.60;99.90
22984;DHT22;11658;48.908;9.140;2022-08-25T13:45:22;29.60;99.90
22984;DHT22;11658;48.908;9.140;2022-08-25T13:47:50;29.60;99.90
22984;DHT22;11658;48.908;9.140;2022-08-25T13:55:21;29.20;99.90
22984;DHT22;11658;48.908;9.140;2022-08-25T13:57:47;29.20;99.90
22984;DHT22;11658;48.908;9.140;2022-08-25T14:00:31;29.00;99.90
22984;DHT22;11658;48.908;9.140;2022-08-25T14:03:01;29.00;99.90
22984;DHT22;11658;48.908;9.140;2022-08-25T14:05:38;29.20;99.90
22984;DHT22;11658;48.908;9.140;2022-08-25T14:08:23;29.30;99.90
22984;DHT22;11658;48.908;9.140;2022-08-25T14:11:14;29.40;99.90
22984;DHT22;11658;48.908;9.140;2022-08-25T14:13:42;29.50;99.90
22984;DHT22;11658;48.908;9.140;2022-08-25T14:16:17;29.60;99.90
22984;DHT22;11658;48.908;9.140;2022-08-25T14:18:55;29.40;99.90
22984;DHT22;11658;48.908;9.140;2022-08-25T14:21:26;29.40;99.90
22984;DHT22;11658;48.908;9.140;2022-08-25T14:23:53;29.40;99.90
22984;DHT22;11658;48.908;9.140;2022-08-25T14:26:19;29.50;99.90
22984;DHT22;11658;48.908;9.140;2022-08-25T14:28:45;29.50;99.90
22984;DHT22;11658;48.908;9.140;2022-08-25T14:31:29;29.60;99.90
22984;DHT22;11658;48.908;9.140;2022-08-25T14:34:02;29.90;99.90
22984;DHT22;11658;48.908;9.140;2022-08-25T14:36:29;30.20;99.90
22984;DHT22;11658;48.908;9.140;2022-08-25T14:38:55;30.60;99.90
22984;DHT22;11658;48.908;9.140;2022-08-25T14:41:25;30.80;99.90
22984;DHT22;11658;48.908;9.140;2022-08-25T14:43:51;30.90;99.90
22984;DHT22;11658;48.908;9.140;2022-08-25T14:46:20;30.70;99.90
22984;DHT22;11658;48.908;9.140;2022-08-25T14:48:49;30.80;99.90
22984;DHT22;11658;48.908;9.140;2022-08-25T14:51:18;30.80;99.90
22984;DHT22;11658;48.908;9.140;2022-08-25T14:53:44;30.80;99.90
22984;DHT22;11658;48.908;9.140;2022-08-25T14:56:10;30.80;99.90
22984;DHT22;11658;48.908;9.140;2022-08-25T14:58:36;31.00;99.90
22984;DHT22;11658;48.908;9.140;2022-08-25T15:01:03;31.20;99.50
22984;DHT22;11658;48.908;9.140;2022-08-25T15:03:34;31.00;99.20
22984;DHT22;11658;48.908;9.140;2022-08-25T15:06:00;30.70;99.50
22984;DHT22;11658;48.908;9.140;2022-08-25T15:08:26;30.50;99.50
22984;DHT22;11658;48.908;9.140;2022-08-25T15:11:11;30.50;99.80
22984;DHT22;11658;48.908;9.140;2022-08-25T15:13:38;30.20;99.90
22984;DHT22;11658;48.908;9.140;2022-08-25T15:16:03;30.20;99.90
22984;DHT22;11658;48.908;9.140;2022-08-25T15:18:30;30.20;99.90
22984;DHT22;11658;48.908;9.140;2022-08-25T15:20:55;30.20;99.90
22984;DHT22;11658;48.908;9.140;2022-08-25T15:23:21;30.60;99.90
22984;DHT22;11658;48.908;9.140;2022-08-25T15:25:48;30.80;99.20
22984;DHT22;11658;48.908;9.140;2022-08-25T15:28:15;30.80;99.10
22984;DHT22;11658;48.908;9.140;2022-08-25T15:30:41;30.80;99.10
22984;DHT22;11658;48.908;9.140;2022-08-25T15:33:07;30.80;99.20
22984;DHT22;11658;48.908;9.140;2022-08-25T15:35:33;30.80;99.10
22984;DHT22;11658;48.908;9.140;2022-08-25T15:37:59;30.80;98.90
22984;DHT22;11658;48.908;9.140;2022-08-25T15:40:26;30.70;98.90
22984;DHT22;11658;48.908;9.140;2022-08-25T15:42:52;30.70;98.90
22984;DHT22;11658;48.908;9.140;2022-08-25T15:45:18;30.80;98.50
22984;DHT22;11658;48.908;9.140;2022-08-25T15:47:44;30.90;98.30
22984;DHT22;11658;48.908;9.140;2022-08-25T15:50:15;30.90;98.40
22984;DHT22;11658;48.908;9.140;2022-08-25T15:52:42;30.70;97.80
22984;DHT22;11658;48.908;9.140;2022-08-25T15:55:09;30.60;98.40
22984;DHT22;11658;48.908;9.140;2022-08-25T15:57:35;30.40;97.80
22984;DHT22;11658;48.908;9.140;2022-08-25T16:00:03;30.50;97.70
22984;DHT22;11658;48.908;9.140;2022-08-25T16:02:29;30.70;97.30
22984;DHT22;11658;48.908;9.140;2022-08-25T16:04:56;30.70;97.10
22984;DHT22;11658;48.908;9.140;2022-08-25T16:07:22;30.80;97.10
22984;DHT22;11658;48.908;9.140;2022-08-25T16:09:48;30.80;96.20
22984;DHT22;11658;48.908;9.140;2022-08-25T16:12:13;30.90;96.30
22984;DHT22;11658;48.908;9.140;2022-08-25T16:14:39;30.80;96.80
22984;DHT22;11658;48.908;9.140;2022-08-25T16:17:05;30.90;97.20
22984;DHT22;11658;48.908;9.140;2022-08-25T16:19:31;30.90;97.40
22984;DHT22;11658;48.908;9.140;2022-08-25T16:21:58;31.00;97.40
22984;DHT22;11658;48.908;9.140;2022-08-25T16:24:24;31.00;97.20
22984;DHT22;11658;48.908;9.140;2022-08-25T16:26:50;31.10;97.00
22984;DHT22;11658;48.908;9.140;2022-08-25T16:29:17;31.00;97.50
22984;DHT22;11658;48.908;9.140;2022-08-25T16:31:43;31.20;97.40
22984;DHT22;11658;48.908;9.140;2022-08-25T16:34:09;31.40;97.20
22984;DHT22;11658;48.908;9.140;2022-08-25T16:36:35;31.80;96.30
22984;DHT22;11658;48.908;9.140;2022-08-25T16:39:01;32.20;95.30
22984;DHT22;11658;48.908;9.140;2022-08-25T16:41:29;32.80;94.50
22984;DHT22;11658;48.908;9.140;2022-08-25T16:44:03;33.80;93.70
22984;DHT22;11658;48.908;9.140;2022-08-25T16:46:32;34.90;92.60
22984;DHT22;11658;48.908;9.140;2022-08-25T16:49:03;35.90;91.00
22984;DHT22;11658;48.908;9.140;2022-08-25T16:51:29;36.60;89.80
22984;DHT22;11658;48.908;9.140;2022-08-25T16:53:55;37.40;87.60
22984;DHT22;11658;48.908;9.140;2022-08-25T16:56:39;38.20;84.00
22984;DHT22;11658;48.908;9.140;2022-08-25T16:59:08;38.60;79.80
22984;DHT22;11658;48.908;9.140;2022-08-25T17:01:34;39.00;78.30
22984;DHT22;11658;48.908;9.140;2022-08-25T17:04:00;38.90;78.20
22984;DHT22;11658;48.908;9.140;2022-08-25T17:06:28;39.10;77.00
22984;DHT22;11658;48.908;9.140;2022-08-25T17:08:55;39.20;75.90
22984;DHT22;11658;48.908;9.140;2022-08-25T17:11:27;38.50;75.40
22984;DHT22;11658;48.908;9.140;2022-08-25T17:13:58;38.30;75.70
22984;DHT22;11658;48.908;9.140;2022-08-25T17:16:26;38.30;74.90
22984;DHT22;11658;48.908;9.140;2022-08-25T17:18:55;38.10;74.20
22984;DHT22;11658;48.908;9.140;2022-08-25T17:21:22;37.70;74.30
22984;DHT22;11658;48.908;9.140;2022-08-25T17:23:52;37.40;74.90
22984;DHT22;11658;48.908;9.140;2022-08-25T17:26:18;36.90;75.60
22984;DHT22;11658;48.908;9.140;2022-08-25T17:28:44;36.50;75.90
22984;DHT22;11658;48.908;9.140;2022-08-25T17:31:11;36.20;77.10
22984;DHT22;11658;48.908;9.140;2022-08-25T17:33:38;36.30;76.20
22984;DHT22;11658;48.908;9.140;2022-08-25T17:36:04;36.40;76.10
22984;DHT22;11658;48.908;9.140;2022-08-25T17:38:30;36.00;76.70
22984;DHT22;11658;48.908;9.140;2022-08-25T17:41:00;34.90;78.40
22984;DHT22;11658;48.908;9.140;2022-08-25T17:43:27;33.90;80.20
22984;DHT22;11658;48.908;9.140;2022-08-25T17:45:54;33.10;82.10
22984;DHT22;11658;48.908;9.140;2022-08-25T17:48:24;32.40;83.80
22984;DHT22;11658;48.908;9.140;2022-08-25T17:50:50;31.70;86.10
22984;DHT22;11658;48.908;9.140;2022-08-25T17:53:16;31.10;87.80
22984;DHT22;11658;48.908;9.140;2022-08-25T17:55:42;30.50;89.20
22984;DHT22;11658;48.908;9.140;2022-08-25T17:58:10;30.10;90.40
22984;DHT22;11658;48.908;9.140;2022-08-25T18:00:37;29.70;91.00
22984;DHT22;11658;48.908;9.140;2022-08-25T18:03:03;29.40;91.70
22984;DHT22;11658;48.908;9.140;2022-08-25T18:05:32;29.20;92.30
22984;DHT22;11658;48.908;9.140;2022-08-25T18:07:58;29.00;92.90
22984;DHT22;11658;48.908;9.140;2022-08-25T18:10:23;28.70;93.30
22984;DHT22;11658;48.908;9.140;2022-08-25T18:12:50;28.50;93.60
22984;DHT22;11658;48.908;9.140;2022-08-25T18:15:16;28.40;94.50
22984;DHT22;11658;48.908;9.140;2022-08-25T18:17:42;28.30;94.80
22984;DHT22;11658;48.908;9.140;2022-08-25T18:20:11;28.10;95.30
22984;DHT22;11658;48.908;9.140;2022-08-25T18:22:40;28.10;95.70
22984;DHT22;11658;48.908;9.140;2022-08-25T18:25:09;27.90;96.10
22984;DHT22;11658;48.908;9.140;2022-08-25T18:27:35;27.80;96.50
22984;DHT22;11658;48.908;9.140;2022-08-25T18:30:02;27.70;96.90
22984;DHT22;11658;48.908;9.140;2022-08-25T18:32:28;27.60;97.10
22984;DHT22;11658;48.908;9.140;2022-08-25T18:34:54;27.50;97.50
22984;DHT22;11658;48.908;9.140;2022-08-25T18:37:21;27.40;97.80
22984;DHT22;11658;48.908;9.140;2022-08-25T18:40:08;27.30;98.20
22984;DHT22;11658;48.908;9.140;2022-08-25T18:42:47;27.20;98.60
22984;DHT22;11658;48.908;9.140;2022-08-25T18:45:13;27.10;98.80
22984;DHT22;11658;48.908;9.140;2022-08-25T18:47:39;27.10;99.20
22984;DHT22;11658;48.908;9.140;2022-08-25T18:50:06;27.00;99.40
22984;DHT22;11658;48.908;9.140;2022-08-25T18:52:33;26.90;99.80
22984;DHT22;11658;48.908;9.140;2022-08-25T18:54:59;26.90;99.90
22984;DHT22;11658;48.908;9.140;2022-08-25T18:57:26;26.70;99.90
22984;DHT22;11658;48.908;9.140;2022-08-25T18:59:51;26.70;99.90
22984;DHT22;11658;48.908;9.140;2022-08-25T19:02:18;26.70;99.90
22984;DHT22;11658;48.908;9.140;2022-08-25T19:04:44;26.60;99.90
22984;DHT22;11658;48.908;9.140;2022-08-25T19:07:10;26.60;99.90
22984;DHT22;11658;48.908;9.140;2022-08-25T19:09:37;26.60;99.90
22984;DHT22;11658;48.908;9.140;2022-08-25T19:12:03;26.50;99.90
22984;DHT22;11658;48.908;9.140;2022-08-25T19:14:32;26.40;99.90
22984;DHT22;11658;48.908;9.140;2022-08-25T19:16:57;26.40;99.90
22984;DHT22;11658;48.908;9.140;2022-08-25T19:19:24;26.30;99.90
22984;DHT22;11658;48.908;9.140;2022-08-25T19:21:49;26.30;99.90
22984;DHT22;11658;48.908;9.140;2022-08-25T19:24:16;26.40;99.90
22984;DHT22;11658;48.908;9.140;2022-08-25T19:26:42;26.30;99.90
22984;DHT22;11658;48.908;9.140;2022-08-25T19:29:12;26.30;99.90
22984;DHT22;11658;48.908;9.140;2022-08-25T19:31:40;26.20;99.90
22984;DHT22;11658;48.908;9.140;2022-08-25T19:34:08;26.20;99.90
22984;DHT22;11658;48.908;9.140;2022-08-25T19:36:36;26.30;99.90
22984;DHT22;11658;48.908;9.140;2022-08-25T19:39:05;26.20;99.90
22984;DHT22;11658;48.908;9.140;2022-08-25T19:41:38;26.10;99.90
22984;DHT22;11658;48.908;9.140;2022-08-25T19:44:08;26.10;99.90
22984;DHT22;11658;48.908;9.140;2022-08-25T19:46:38;26.00;99.90
22984;DHT22;11658;48.908;9.140;2022-08-25T19:49:11;26.00;99.90
22984;DHT22;11658;48.908;9.140;2022-08-25T19:51:39;26.00;99.90
22984;DHT22;11658;48.908;9.140;2022-08-25T19:54:07;25.90;99.90
22984;DHT22;11658;48.908;9.140;2022-08-25T19:56:32;25.90;99.90
22984;DHT22;11658;48.908;9.140;2022-08-25T19:59:00;25.90;99.90
22984;DHT22;11658;48.908;9.140;2022-08-25T20:01:26;25.80;99.90
22984;DHT22;11658;48.908;9.140;2022-08-25T20:03:52;25.70;99.90
22984;DHT22;11658;48.908;9.140;2022-08-25T20:06:18;25.60;99.90
22984;DHT22;11658;48.908;9.140;2022-08-25T20:08:44;25.60;99.90
22984;DHT22;11658;48.908;9.140;2022-08-25T20:11:09;25.40;99.90
22984;DHT22;11658;48.908;9.140;2022-08-25T20:13:35;25.30;99.90
22984;DHT22;11658;48.908;9.140;2022-08-25T20:16:01;25.10;99.90
22984;DHT22;11658;48.908;9.140;2022-08-25T20:18:30;25.00;99.90
22984;DHT22;11658;48.908;9.140;2022-08-25T20:21:04;24.90;99.90
22984;DHT22;11658;48.908;9.140;2022-08-25T20:23:30;24.90;99.90
22984;DHT22;11658;48.908;9.140;2022-08-25T20:26:17;24.80;99.90
22984;DHT22;11658;48.908;9.140;2022-08-25T20:28:43;24.90;99.90
22984;DHT22;11658;48.908;9.140;2022-08-25T20:31:09;25.00;99.90
22984;DHT22;11658;48.908;9.140;2022-08-25T20:33:34;25.00;99.90